sensor_id;sensor_type;location;lat;lon;timestamp;temperature;humidity
4097;DHT22;2062;50.694;7.246;2023-02-15T00:02:01;2.40;56.10
4097;DHT22;2062;50.694;7.246;2023-02-15T00:04:28;2.40;56.40
4097;DHT22;2062;50.694;7.246;2023-02-15T00:07:14;2.40;56.70
4097;DHT22;2062;50.694;7.246;2023-02-15T00:09:41;2.40;57.20
4097;DHT22;2062;50.694;7.246;2023-02-15T00:12:09;2.30;56.10
4097;DHT22;2062;50.694;7.246;2023-02-15T00:14:36;2.30;55.90
4097;DHT22;2062;50.694;7.246;2023-02-15T00:17:03;2.30;55.80
4097;DHT22;2062;50.694;7.246;2023-02-15T00:19:30;2.30;55.80
4097;DHT22;2062;50.694;7.246;2023-02-15T00:21:57;2.30;56.20
4097;DHT22;2062;50.694;7.246;2023-02-15T00:24:26;2.20;56.20
4097;DHT22;2062;50.694;7.246;2023-02-15T00:26:53;2.20;55.90
4097;DHT22;2062;50.694;7.246;2023-02-15T00:29:20;2.20;55.70
4097;DHT22;2062;50.694;7.246;2023-02-15T00:31:46;2.20;56.10
4097;DHT22;2062;50.694;7.246;2023-02-15T00:34:15;2.10;56.50
4097;DHT22;2062;50.694;7.246;2023-02-15T00:36:43;2.10;57.00
4097;DHT22;2062;50.694;7.246;2023-02-15T00:39:10;2.10;56.20
4097;DHT22;2062;50.694;7.246;2023-02-15T00:41:39;2.00;56.40
4097;DHT22;2062;50.694;7.246;2023-02-15T00:44:06;2.20;56.60
4097;DHT22;2062;50.694;7.246;2023-02-15T00:46:33;2.00;56.30
4097;DHT22;2062;50.694;7.246;2023-02-15T00:49:00;2.00;56.10
4097;DHT22;2062;50.694;7.246;2023-02-15T00:51:27;2.00;56.20
4097;DHT22;2062;50.694;7.246;2023-02-15T00:53:54;2.00;55.90
4097;DHT22;2062;50.694;7.246;2023-02-15T00:56:21;1.90;56.10
4097;DHT22;2062;50.694;7.246;2023-02-15T00:58:49;1.90;56.30
4097;DHT22;2062;50.694;7.246;2023-02-15T01:01:18;1.90;56.40
4097;DHT22;2062;50.694;7.246;2023-02-15T01:03:46;1.90;56.40
4097;DHT22;2062;50.694;7.246;2023-02-15T01:06:14;1.80;56.40
4097;DHT22;2062;50.694;7.246;2023-02-15T01:08:41;1.80;57.20
4097;DHT22;2062;50.694;7.246;2023-02-15T01:11:10;1.80;57.00
4097;DHT22;2062;50.694;7.246;2023-02-15T01:13:38;1.70;57.10
4097;DHT22;2062;50.694;7.246;2023-02-15T01:16:07;1.80;56.50
4097;DHT22;2062;50.694;7.246;2023-02-15T01:18:35;1.70;57.20
4097;DHT22;2062;50.694;7.246;2023-02-15T01:21:09;1.80;56.80
4097;DHT22;2062;50.694;7.246;2023-02-15T01:23:36;1.70;56.90
4097;DHT22;2062;50.694;7.246;2023-02-15T01:26:03;1.70;56.90
4097;DHT22;2062;50.694;7.246;2023-02-15T01:28:30;1.70;56.40
4097;DHT22;2062;50.694;7.246;2023-02-15T01:30:57;1.70;56.70
4097;DHT22;2062;50.694;7.246;2023-02-15T01:33:25;1.60;56.80
4097;DHT22;2062;50.694;7.246;2023-02-15T01:35:56;1.60;56.40
4097;DHT22;2062;50.694;7.246;2023-02-15T01:38:23;1.60;56.90
4097;DHT22;2062;50.694;7.246;2023-02-15T01:40:51;1.60;57.60
4097;DHT22;2062;50.694;7.246;2023-02-15T01:43:18;1.60;57.00
4097;DHT22;2062;50.694;7.246;2023-02-15T01:45:47;1.50;57.30
4097;DHT22;2062;50.694;7.246;2023-02-15T01:48:20;1.50;57.60
4097;DHT22;2062;50.694;7.246;2023-02-15T01:50:51;1.50;57.00
4097;DHT22;2062;50.694;7.246;2023-02-15T01:53:23;1.50;56.60
4097;DHT22;2062;50.694;7.246;2023-02-15T01:55:52;1.50;57.20
4097;DHT22;2062;50.694;7.246;2023-02-15T01:58:21;1.50;56.80
4097;DHT22;2062;50.694;7.246;2023-02-15T02:00:49;1.50;56.80
4097;DHT22;2062;50.694;7.246;2023-02-15T02:03:16;1.50;57.40
4097;DHT22;2062;50.694;7.246;2023-02-15T02:05:43;1.50;57.00
4097;DHT22;2062;50.694;7.246;2023-02-15T02:08:11;1.50;57.30
4097;DHT22;2062;50.694;7.246;2023-02-15T02:10:38;1.50;56.80
4097;DHT22;2062;50.694;7.246;2023-02-15T02:13:06;1.40;56.40
4097;DHT22;2062;50.694;7.246;2023-02-15T02:15:40;1.40;57.00
4097;DHT22;2062;50.694;7.246;2023-02-15T02:18:22;1.40;56.30
4097;DHT22;2062;50.694;7.246;2023-02-15T02:24:27;1.40;57.00
4097;DHT22;2062;50.694;7.246;2023-02-15T02:27:18;1.40;57.00
4097;DHT22;2062;50.694;7.246;2023-02-15T02:30:06;1.30;57.30
4097;DHT22;2062;50.694;7.246;2023-02-15T02:32:52;1.50;57.60
4097;DHT22;2062;50.694;7.246;2023-02-15T02:35:27;1.30;57.20
4097;DHT22;2062;50.694;7.246;2023-02-15T02:38:03;1.30;58.00
4097;DHT22;2062;50.694;7.246;2023-02-15T02:40:42;1.20;57.00
4097;DHT22;2062;50.694;7.246;2023-02-15T02:43:17;1.20;57.50
4097;DHT22;2062;50.694;7.246;2023-02-15T02:45:50;1.20;57.60
4097;DHT22;2062;50.694;7.246;2023-02-15T02:48:23;1.40;57.60
4097;DHT22;2062;50.694;7.246;2023-02-15T02:50:50;1.20;57.00
4097;DHT22;2062;50.694;7.246;2023-02-15T02:53:17;1.20;56.90
4097;DHT22;2062;50.694;7.246;2023-02-15T02:55:47;1.20;57.20
4097;DHT22;2062;50.694;7.246;2023-02-15T02:58:19;1.20;56.90
4097;DHT22;2062;50.694;7.246;2023-02-15T03:00:52;1.10;57.30
4097;DHT22;2062;50.694;7.246;2023-02-15T03:03:25;1.20;57.50
4097;DHT22;2062;50.694;7.246;2023-02-15T03:05:55;1.20;57.10
4097;DHT22;2062;50.694;7.246;2023-02-15T03:08:25;1.10;57.00
4097;DHT22;2062;50.694;7.246;2023-02-15T03:10:56;1.10;57.10
4097;DHT22;2062;50.694;7.246;2023-02-15T03:13:24;1.10;57.30
4097;DHT22;2062;50.694;7.246;2023-02-15T03:15:52;1.10;57.20
4097;DHT22;2062;50.694;7.246;2023-02-15T03:18:40;1.10;57.50
4097;DHT22;2062;50.694;7.246;2023-02-15T03:21:10;1.10;57.30
4097;DHT22;2062;50.694;7.246;2023-02-15T03:23:50;1.10;57.70
4097;DHT22;2062;50.694;7.246;2023-02-15T03:26:18;1.00;58.00
4097;DHT22;2062;50.694;7.246;2023-02-15T03:28:46;1.10;57.50
4097;DHT22;2062;50.694;7.246;2023-02-15T03:31:16;1.00;57.70
4097;DHT22;2062;50.694;7.246;2023-02-15T03:33:52;1.00;57.80
4097;DHT22;2062;50.694;7.246;2023-02-15T03:36:22;1.00;57.70
4097;DHT22;2062;50.694;7.246;2023-02-15T03:38:55;1.00;57.70
4097;DHT22;2062;50.694;7.246;2023-02-15T03:41:27;1.00;57.20
4097;DHT22;2062;50.694;7.246;2023-02-15T03:44:00;0.90;57.80
4097;DHT22;2062;50.694;7.246;2023-02-15T03:46:32;0.90;57.50
4097;DHT22;2062;50.694;7.246;2023-02-15T03:49:07;0.90;57.60
4097;DHT22;2062;50.694;7.246;2023-02-15T03:51:37;1.00;57.40
4097;DHT22;2062;50.694;7.246;2023-02-15T03:54:08;0.90;57.30
4097;DHT22;2062;50.694;7.246;2023-02-15T03:56:37;0.90;57.80
4097;DHT22;2062;50.694;7.246;2023-02-15T03:59:04;0.90;57.50
4097;DHT22;2062;50.694;7.246;2023-02-15T04:01:58;0.90;57.30
4097;DHT22;2062;50.694;7.246;2023-02-15T04:04:32;0.90;57.20
4097;DHT22;2062;50.694;7.246;2023-02-15T04:07:00;0.90;57.20
4097;DHT22;2062;50.694;7.246;2023-02-15T04:09:27;0.90;57.90
4097;DHT22;2062;50.694;7.246;2023-02-15T04:12:11;0.90;57.90
4097;DHT22;2062;50.694;7.246;2023-02-15T04:14:38;0.80;58.20
4097;DHT22;2062;50.694;7.246;2023-02-15T04:17:22;0.80;58.10
4097;DHT22;2062;50.694;7.246;2023-02-15T04:19:50;0.80;57.80
4097;DHT22;2062;50.694;7.246;2023-02-15T04:22:35;0.80;58.00
4097;DHT22;2062;50.694;7.246;2023-02-15T04:25:19;0.80;58.10
4097;DHT22;2062;50.694;7.246;2023-02-15T04:27:49;0.80;58.50
4097;DHT22;2062;50.694;7.246;2023-02-15T04:30:17;0.80;57.50
4097;DHT22;2062;50.694;7.246;2023-02-15T04:32:44;0.80;57.90
4097;DHT22;2062;50.694;7.246;2023-02-15T04:35:13;0.80;57.90
4097;DHT22;2062;50.694;7.246;2023-02-15T04:37:41;0.80;57.70
4097;DHT22;2062;50.694;7.246;2023-02-15T04:40:10;0.80;58.50
4097;DHT22;2062;50.694;7.246;2023-02-15T04:42:37;0.70;57.70
4097;DHT22;2062;50.694;7.246;2023-02-15T04:45:04;0.80;57.90
4097;DHT22;2062;50.694;7.246;2023-02-15T04:47:31;0.80;57.80
4097;DHT22;2062;50.694;7.246;2023-02-15T04:49:57;0.70;57.40
4097;DHT22;2062;50.694;7.246;2023-02-15T04:52:26;0.70;57.60
4097;DHT22;2062;50.694;7.246;2023-02-15T04:54:52;0.70;57.80
4097;DHT22;2062;50.694;7.246;2023-02-15T04:57:19;0.70;58.00
4097;DHT22;2062;50.694;7.246;2023-02-15T04:59:46;0.70;58.20
4097;DHT22;2062;50.694;7.246;2023-02-15T05:02:13;0.70;58.00
4097;DHT22;2062;50.694;7.246;2023-02-15T05:04:39;0.70;57.70
4097;DHT22;2062;50.694;7.246;2023-02-15T05:07:06;0.70;57.60
4097;DHT22;2062;50.694;7.246;2023-02-15T05:09:34;0.70;58.10
4097;DHT22;2062;50.694;7.246;2023-02-15T05:12:01;0.70;57.30
4097;DHT22;2062;50.694;7.246;2023-02-15T05:14:28;0.60;57.30
4097;DHT22;2062;50.694;7.246;2023-02-15T05:16:54;0.60;57.70
4097;DHT22;2062;50.694;7.246;2023-02-15T05:19:21;0.60;57.60
4097;DHT22;2062;50.694;7.246;2023-02-15T05:21:51;0.60;57.90
4097;DHT22;2062;50.694;7.246;2023-02-15T05:24:18;0.60;58.40
4097;DHT22;2062;50.694;7.246;2023-02-15T05:27:03;0.60;57.80
4097;DHT22;2062;50.694;7.246;2023-02-15T05:29:48;0.60;58.60
4097;DHT22;2062;50.694;7.246;2023-02-15T05:32:15;0.60;57.90
4097;DHT22;2062;50.694;7.246;2023-02-15T05:34:42;0.60;58.00
4097;DHT22;2062;50.694;7.246;2023-02-15T05:37:08;0.50;58.00
4097;DHT22;2062;50.694;7.246;2023-02-15T05:39:35;0.50;58.20
4097;DHT22;2062;50.694;7.246;2023-02-15T05:42:04;0.50;58.60
4097;DHT22;2062;50.694;7.246;2023-02-15T05:44:31;0.50;58.80
4097;DHT22;2062;50.694;7.246;2023-02-15T05:46:58;0.50;58.50
4097;DHT22;2062;50.694;7.246;2023-02-15T05:49:24;0.50;58.80
4097;DHT22;2062;50.694;7.246;2023-02-15T05:51:51;0.50;58.00
4097;DHT22;2062;50.694;7.246;2023-02-15T05:54:18;0.50;57.70
4097;DHT22;2062;50.694;7.246;2023-02-15T05:56:45;0.50;57.70
4097;DHT22;2062;50.694;7.246;2023-02-15T05:59:13;0.50;57.70
4097;DHT22;2062;50.694;7.246;2023-02-15T06:01:39;0.50;57.90
4097;DHT22;2062;50.694;7.246;2023-02-15T06:04:06;0.40;58.20
4097;DHT22;2062;50.694;7.246;2023-02-15T06:06:33;0.40;58.50
4097;DHT22;2062;50.694;7.246;2023-02-15T06:09:01;0.40;58.00
4097;DHT22;2062;50.694;7.246;2023-02-15T06:11:27;0.40;58.60
4097;DHT22;2062;50.694;7.246;2023-02-15T06:13:54;0.40;58.70
4097;DHT22;2062;50.694;7.246;2023-02-15T06:16:22;0.40;58.40
4097;DHT22;2062;50.694;7.246;2023-02-15T06:18:49;0.40;58.00
4097;DHT22;2062;50.694;7.246;2023-02-15T06:21:16;0.40;58.60
4097;DHT22;2062;50.694;7.246;2023-02-15T06:23:42;0.40;58.40
4097;DHT22;2062;50.694;7.246;2023-02-15T06:26:09;0.40;58.70
4097;DHT22;2062;50.694;7.246;2023-02-15T06:28:36;0.40;58.50
4097;DHT22;2062;50.694;7.246;2023-02-15T06:31:03;0.30;57.80
4097;DHT22;2062;50.694;7.246;2023-02-15T06:33:32;0.40;58.30
4097;DHT22;2062;50.694;7.246;2023-02-15T06:35:59;0.40;57.90
4097;DHT22;2062;50.694;7.246;2023-02-15T06:38:27;0.40;58.60
4097;DHT22;2062;50.694;7.246;2023-02-15T06:40:54;0.30;58.10
4097;DHT22;2062;50.694;7.246;2023-02-15T06:43:21;0.30;58.50
4097;DHT22;2062;50.694;7.246;2023-02-15T06:45:47;0.30;58.10
4097;DHT22;2062;50.694;7.246;2023-02-15T06:48:14;0.30;57.80
4097;DHT22;2062;50.694;7.246;2023-02-15T06:50:43;0.40;57.70
4097;DHT22;2062;50.694;7.246;2023-02-15T06:53:09;0.30;57.70
4097;DHT22;2062;50.694;7.246;2023-02-15T06:55:36;0.30;58.00
4097;DHT22;2062;50.694;7.246;2023-02-15T06:58:03;0.30;57.90
4097;DHT22;2062;50.694;7.246;2023-02-15T07:00:30;0.30;58.30
4097;DHT22;2062;50.694;7.246;2023-02-15T07:02:57;0.30;58.60
4097;DHT22;2062;50.694;7.246;2023-02-15T07:05:24;0.30;58.70
4097;DHT22;2062;50.694;7.246;2023-02-15T07:07:57;0.30;58.50
4097;DHT22;2062;50.694;7.246;2023-02-15T07:10:24;0.30;58.50
4097;DHT22;2062;50.694;7.246;2023-02-15T07:12:51;0.20;58.10
4097;DHT22;2062;50.694;7.246;2023-02-15T07:15:18;0.30;58.70
4097;DHT22;2062;50.694;7.246;2023-02-15T07:17:46;0.30;59.20
4097;DHT22;2062;50.694;7.246;2023-02-15T07:20:15;0.30;58.60
4097;DHT22;2062;50.694;7.246;2023-02-15T07:22:42;0.30;58.50
4097;DHT22;2062;50.694;7.246;2023-02-15T07:25:11;0.30;58.90
4097;DHT22;2062;50.694;7.246;2023-02-15T07:27:39;0.30;58.90
4097;DHT22;2062;50.694;7.246;2023-02-15T07:30:08;0.30;58.70
4097;DHT22;2062;50.694;7.246;2023-02-15T07:32:35;0.40;58.50
4097;DHT22;2062;50.694;7.246;2023-02-15T07:35:22;0.40;58.10
4097;DHT22;2062;50.694;7.246;2023-02-15T07:37:49;0.40;58.00
4097;DHT22;2062;50.694;7.246;2023-02-15T07:40:17;0.50;57.50
4097;DHT22;2062;50.694;7.246;2023-02-15T07:42:44;0.50;57.60
4097;DHT22;2062;50.694;7.246;2023-02-15T07:45:11;0.60;57.90
4097;DHT22;2062;50.694;7.246;2023-02-15T07:47:37;0.60;58.60
4097;DHT22;2062;50.694;7.246;2023-02-15T07:50:05;0.60;58.80
4097;DHT22;2062;50.694;7.246;2023-02-15T07:52:32;0.70;59.10
4097;DHT22;2062;50.694;7.246;2023-02-15T07:54:59;0.80;59.40
4097;DHT22;2062;50.694;7.246;2023-02-15T07:57:28;1.00;59.30
4097;DHT22;2062;50.694;7.246;2023-02-15T07:59:55;1.00;59.60
4097;DHT22;2062;50.694;7.246;2023-02-15T08:02:21;1.20;60.20
4097;DHT22;2062;50.694;7.246;2023-02-15T08:04:48;1.40;60.30
4097;DHT22;2062;50.694;7.246;2023-02-15T08:07:15;1.50;61.20
4097;DHT22;2062;50.694;7.246;2023-02-15T08:09:42;1.70;62.10
4097;DHT22;2062;50.694;7.246;2023-02-15T08:12:08;2.00;62.50
4097;DHT22;2062;50.694;7.246;2023-02-15T08:14:37;2.30;63.20
4097;DHT22;2062;50.694;7.246;2023-02-15T08:17:03;2.50;63.00
4097;DHT22;2062;50.694;7.246;2023-02-15T08:19:32;2.80;63.20
4097;DHT22;2062;50.694;7.246;2023-02-15T08:22:01;3.10;63.50
4097;DHT22;2062;50.694;7.246;2023-02-15T08:24:31;3.40;63.40
4097;DHT22;2062;50.694;7.246;2023-02-15T08:26:58;3.70;64.30
4097;DHT22;2062;50.694;7.246;2023-02-15T08:29:27;4.00;63.70
4097;DHT22;2062;50.694;7.246;2023-02-15T08:31:57;4.30;63.20
4097;DHT22;2062;50.694;7.246;2023-02-15T08:34:24;4.60;63.10
4097;DHT22;2062;50.694;7.246;2023-02-15T08:36:51;4.90;62.60
4097;DHT22;2062;50.694;7.246;2023-02-15T08:39:18;5.20;62.10
4097;DHT22;2062;50.694;7.246;2023-02-15T08:41:46;5.50;62.10
4097;DHT22;2062;50.694;7.246;2023-02-15T08:44:15;5.80;61.80
4097;DHT22;2062;50.694;7.246;2023-02-15T08:46:44;6.10;61.60
4097;DHT22;2062;50.694;7.246;2023-02-15T08:49:15;6.30;61.00
4097;DHT22;2062;50.694;7.246;2023-02-15T08:51:42;6.60;60.60
4097;DHT22;2062;50.694;7.246;2023-02-15T08:54:13;6.90;60.10
4097;DHT22;2062;50.694;7.246;2023-02-15T08:56:41;7.20;59.70
4097;DHT22;2062;50.694;7.246;2023-02-15T08:59:13;7.40;59.10
4097;DHT22;2062;50.694;7.246;2023-02-15T09:01:40;7.60;59.50
4097;DHT22;2062;50.694;7.246;2023-02-15T09:04:08;7.90;58.60
4097;DHT22;2062;50.694;7.246;2023-02-15T09:06:37;8.10;58.20
4097;DHT22;2062;50.694;7.246;2023-02-15T09:09:05;8.30;57.70
4097;DHT22;2062;50.694;7.246;2023-02-15T09:11:34;8.60;57.40
4097;DHT22;2062;50.694;7.246;2023-02-15T09:14:04;8.80;57.10
4097;DHT22;2062;50.694;7.246;2023-02-15T09:16:32;9.00;56.50
4097;DHT22;2062;50.694;7.246;2023-02-15T09:19:00;9.20;56.10
4097;DHT22;2062;50.694;7.246;2023-02-15T09:21:28;9.40;55.70
4097;DHT22;2062;50.694;7.246;2023-02-15T09:23:58;9.50;55.30
4097;DHT22;2062;50.694;7.246;2023-02-15T09:26:27;9.70;55.40
4097;DHT22;2062;50.694;7.246;2023-02-15T09:28:57;9.90;54.50
4097;DHT22;2062;50.694;7.246;2023-02-15T09:31:26;10.10;54.30
4097;DHT22;2062;50.694;7.246;2023-02-15T09:33:54;10.20;54.30
4097;DHT22;2062;50.694;7.246;2023-02-15T09:36:23;10.40;54.60
4097;DHT22;2062;50.694;7.246;2023-02-15T09:38:55;10.60;54.70
4097;DHT22;2062;50.694;7.246;2023-02-15T09:41:46;10.70;54.60
4097;DHT22;2062;50.694;7.246;2023-02-15T09:44:22;11.00;54.50
4097;DHT22;2062;50.694;7.246;2023-02-15T09:47:04;11.10;53.50
4097;DHT22;2062;50.694;7.246;2023-02-15T09:49:39;11.30;53.50
4097;DHT22;2062;50.694;7.246;2023-02-15T09:52:26;11.40;52.50
4097;DHT22;2062;50.694;7.246;2023-02-15T09:57:58;11.70;52.60
4097;DHT22;2062;50.694;7.246;2023-02-15T10:00:34;11.90;52.40
4097;DHT22;2062;50.694;7.246;2023-02-15T10:03:13;12.00;52.00
4097;DHT22;2062;50.694;7.246;2023-02-15T10:05:55;12.10;52.10
4097;DHT22;2062;50.694;7.246;2023-02-15T10:08:49;12.30;52.30
4097;DHT22;2062;50.694;7.246;2023-02-15T10:11:23;12.50;52.10
4097;DHT22;2062;50.694;7.246;2023-02-15T10:14:20;12.60;50.70
4097;DHT22;2062;50.694;7.246;2023-02-15T10:16:58;12.70;50.50
4097;DHT22;2062;50.694;7.246;2023-02-15T10:19:38;12.80;50.20
4097;DHT22;2062;50.694;7.246;2023-02-15T10:22:19;12.90;50.00
4097;DHT22;2062;50.694;7.246;2023-02-15T10:27:44;13.00;48.60
4097;DHT22;2062;50.694;7.246;2023-02-15T10:30:15;13.10;49.10
4097;DHT22;2062;50.694;7.246;2023-02-15T10:32:53;13.20;49.20
4097;DHT22;2062;50.694;7.246;2023-02-15T10:35:27;13.20;49.90
4097;DHT22;2062;50.694;7.246;2023-02-15T10:38:17;13.30;49.50
4097;DHT22;2062;50.694;7.246;2023-02-15T10:40:51;13.40;49.50
4097;DHT22;2062;50.694;7.246;2023-02-15T10:43:37;13.40;49.50
4097;DHT22;2062;50.694;7.246;2023-02-15T10:46:19;13.60;49.40
4097;DHT22;2062;50.694;7.246;2023-02-15T10:49:23;13.60;49.80
4097;DHT22;2062;50.694;7.246;2023-02-15T10:52:02;13.70;50.10
4097;DHT22;2062;50.694;7.246;2023-02-15T10:54:40;13.80;48.80
4097;DHT22;2062;50.694;7.246;2023-02-15T10:57:16;13.80;48.90
4097;DHT22;2062;50.694;7.246;2023-02-15T11:00:01;13.90;48.90
4097;DHT22;2062;50.694;7.246;2023-02-15T11:02:45;14.00;48.20
4097;DHT22;2062;50.694;7.246;2023-02-15T11:05:35;14.00;48.60
4097;DHT22;2062;50.694;7.246;2023-02-15T11:08:05;14.10;49.30
4097;DHT22;2062;50.694;7.246;2023-02-15T11:10:35;14.20;49.00
4097;DHT22;2062;50.694;7.246;2023-02-15T11:13:08;14.20;48.30
4097;DHT22;2062;50.694;7.246;2023-02-15T11:15:38;14.40;47.80
4097;DHT22;2062;50.694;7.246;2023-02-15T11:18:11;14.40;47.90
4097;DHT22;2062;50.694;7.246;2023-02-15T11:20:46;14.40;47.50
4097;DHT22;2062;50.694;7.246;2023-02-15T11:23:16;14.50;47.80
4097;DHT22;2062;50.694;7.246;2023-02-15T11:25:46;14.60;48.00
4097;DHT22;2062;50.694;7.246;2023-02-15T11:28:19;14.50;47.40
4097;DHT22;2062;50.694;7.246;2023-02-15T11:30:50;14.60;48.50
4097;DHT22;2062;50.694;7.246;2023-02-15T11:33:23;14.60;47.50
4097;DHT22;2062;50.694;7.246;2023-02-15T11:35:56;14.70;47.00
4097;DHT22;2062;50.694;7.246;2023-02-15T11:38:26;14.70;46.60
4097;DHT22;2062;50.694;7.246;2023-02-15T11:40:56;14.80;46.50
4097;DHT22;2062;50.694;7.246;2023-02-15T11:43:28;14.80;46.30
4097;DHT22;2062;50.694;7.246;2023-02-15T11:45:56;14.90;46.50
4097;DHT22;2062;50.694;7.246;2023-02-15T11:48:24;14.90;46.50
4097;DHT22;2062;50.694;7.246;2023-02-15T11:50:51;14.90;46.90
4097;DHT22;2062;50.694;7.246;2023-02-15T11:53:19;15.00;46.30
4097;DHT22;2062;50.694;7.246;2023-02-15T11:55:50;15.10;45.50
4097;DHT22;2062;50.694;7.246;2023-02-15T11:58:25;15.20;44.40
4097;DHT22;2062;50.694;7.246;2023-02-15T12:00:58;15.20;45.00
4097;DHT22;2062;50.694;7.246;2023-02-15T12:03:39;15.20;43.90
4097;DHT22;2062;50.694;7.246;2023-02-15T12:06:16;15.20;44.10
4097;DHT22;2062;50.694;7.246;2023-02-15T12:08:51;15.20;44.30
4097;DHT22;2062;50.694;7.246;2023-02-15T12:11:22;15.20;44.40
4097;DHT22;2062;50.694;7.246;2023-02-15T12:13:57;15.20;43.30
4097;DHT22;2062;50.694;7.246;2023-02-15T12:16:25;15.30;43.70
4097;DHT22;2062;50.694;7.246;2023-02-15T12:18:55;15.30;43.40
4097;DHT22;2062;50.694;7.246;2023-02-15T12:21:28;15.30;43.90
4097;DHT22;2062;50.694;7.246;2023-02-15T12:23:58;15.30;43.60
4097;DHT22;2062;50.694;7.246;2023-02-15T12:26:29;15.40;43.80
4097;DHT22;2062;50.694;7.246;2023-02-15T12:28:58;15.30;42.70
4097;DHT22;2062;50.694;7.246;2023-02-15T12:31:30;15.40;43.30
4097;DHT22;2062;50.694;7.246;2023-02-15T12:34:02;15.40;43.60
4097;DHT22;2062;50.694;7.246;2023-02-15T12:36:38;15.40;43.50
4097;DHT22;2062;50.694;7.246;2023-02-15T12:39:18;15.50;43.20
4097;DHT22;2062;50.694;7.246;2023-02-15T12:41:57;15.50;43.50
4097;DHT22;2062;50.694;7.246;2023-02-15T12:44:26;15.60;43.50
4097;DHT22;2062;50.694;7.246;2023-02-15T12:46:59;15.60;43.00
4097;DHT22;2062;50.694;7.246;2023-02-15T12:49:29;15.60;42.20
4097;DHT22;2062;50.694;7.246;2023-02-15T12:51:57;15.60;42.00
4097;DHT22;2062;50.694;7.246;2023-02-15T12:54:36;15.70;42.40
4097;DHT22;2062;50.694;7.246;2023-02-15T12:57:30;15.70;43.10
4097;DHT22;2062;50.694;7.246;2023-02-15T12:59:58;15.80;43.00
4097;DHT22;2062;50.694;7.246;2023-02-15T13:02:29;15.80;42.00
4097;DHT22;2062;50.694;7.246;2023-02-15T13:05:10;15.80;42.20
4097;DHT22;2062;50.694;7.246;2023-02-15T13:07:45;15.80;42.60
4097;DHT22;2062;50.694;7.246;2023-02-15T13:10:22;15.80;42.50
4097;DHT22;2062;50.694;7.246;2023-02-15T13:12:50;15.80;42.90
4097;DHT22;2062;50.694;7.246;2023-02-15T13:15:28;15.80;43.00
4097;DHT22;2062;50.694;7.246;2023-02-15T13:17:58;15.90;42.80
4097;DHT22;2062;50.694;7.246;2023-02-15T13:20:27;16.00;42.50
4097;DHT22;2062;50.694;7.246;2023-02-15T13:22:58;16.00;42.20
4097;DHT22;2062;50.694;7.246;2023-02-15T13:25:28;16.00;41.90
4097;DHT22;2062;50.694;7.246;2023-02-15T13:28:00;16.00;41.90
4097;DHT22;2062;50.694;7.246;2023-02-15T13:30:30;16.00;41.00
4097;DHT22;2062;50.694;7.246;2023-02-15T13:33:03;16.10;42.00
4097;DHT22;2062;50.694;7.246;2023-02-15T13:35:38;16.10;41.30
4097;DHT22;2062;50.694;7.246;2023-02-15T13:38:32;16.10;41.70
4097;DHT22;2062;50.694;7.246;2023-02-15T13:41:06;16.20;42.00
4097;DHT22;2062;50.694;7.246;2023-02-15T13:43:45;16.20;41.40
4097;DHT22;2062;50.694;7.246;2023-02-15T13:46:24;16.20;41.00
4097;DHT22;2062;50.694;7.246;2023-02-15T13:49:08;16.20;40.90
4097;DHT22;2062;50.694;7.246;2023-02-15T13:51:45;16.20;40.60
4097;DHT22;2062;50.694;7.246;2023-02-15T13:57:25;16.10;40.10
4097;DHT22;2062;50.694;7.246;2023-02-15T14:00:05;16.10;40.30
4097;DHT22;2062;50.694;7.246;2023-02-15T14:02:52;16.10;40.50
4097;DHT22;2062;50.694;7.246;2023-02-15T14:05:47;16.00;40.00
4097;DHT22;2062;50.694;7.246;2023-02-15T14:08:27;15.90;39.60
4097;DHT22;2062;50.694;7.246;2023-02-15T14:11:04;15.90;40.00
4097;DHT22;2062;50.694;7.246;2023-02-15T14:13:48;15.90;40.30
4097;DHT22;2062;50.694;7.246;2023-02-15T14:16:20;15.80;40.70
4097;DHT22;2062;50.694;7.246;2023-02-15T14:18:57;15.90;40.60
4097;DHT22;2062;50.694;7.246;2023-02-15T14:21:30;15.90;40.70
4097;DHT22;2062;50.694;7.246;2023-02-15T14:24:13;15.90;40.00
4097;DHT22;2062;50.694;7.246;2023-02-15T14:26:47;15.90;40.80
4097;DHT22;2062;50.694;7.246;2023-02-15T14:29:27;15.80;40.20
4097;DHT22;2062;50.694;7.246;2023-02-15T14:32:04;15.80;40.30
4097;DHT22;2062;50.694;7.246;2023-02-15T14:34:46;15.80;39.40
4097;DHT22;2062;50.694;7.246;2023-02-15T14:37:21;15.80;39.90
4097;DHT22;2062;50.694;7.246;2023-02-15T14:39:57;15.70;39.90
4097;DHT22;2062;50.694;7.246;2023-02-15T14:42:52;15.70;39.30
4097;DHT22;2062;50.694;7.246;2023-02-15T14:48:12;15.60;39.60
4097;DHT22;2062;50.694;7.246;2023-02-15T14:50:44;15.50;39.40
4097;DHT22;2062;50.694;7.246;2023-02-15T14:53:25;15.40;39.40
4097;DHT22;2062;50.694;7.246;2023-02-15T14:56:24;15.40;39.10
4097;DHT22;2062;50.694;7.246;2023-02-15T14:59:00;15.30;39.00
4097;DHT22;2062;50.694;7.246;2023-02-15T15:01:36;15.20;39.30
4097;DHT22;2062;50.694;7.246;2023-02-15T15:04:05;15.10;39.60
4097;DHT22;2062;50.694;7.246;2023-02-15T15:06:35;15.00;39.60
4097;DHT22;2062;50.694;7.246;2023-02-15T15:09:11;15.00;39.70
4097;DHT22;2062;50.694;7.246;2023-02-15T15:11:43;14.90;39.70
4097;DHT22;2062;50.694;7.246;2023-02-15T15:14:11;14.90;40.00
4097;DHT22;2062;50.694;7.246;2023-02-15T15:16:58;14.80;39.90
4097;DHT22;2062;50.694;7.246;2023-02-15T15:22:29;14.70;39.40
4097;DHT22;2062;50.694;7.246;2023-02-15T15:24:57;14.60;39.70
4097;DHT22;2062;50.694;7.246;2023-02-15T15:27:39;14.40;39.60
4097;DHT22;2062;50.694;7.246;2023-02-15T15:34:08;14.20;39.30
4097;DHT22;2062;50.694;7.246;2023-02-15T15:40:22;13.90;39.40
4097;DHT22;2062;50.694;7.246;2023-02-15T15:43:31;13.80;39.50
4097;DHT22;2062;50.694;7.246;2023-02-15T15:46:10;13.60;39.80
4097;DHT22;2062;50.694;7.246;2023-02-15T15:48:40;13.50;40.10
4097;DHT22;2062;50.694;7.246;2023-02-15T15:51:18;13.40;40.40
4097;DHT22;2062;50.694;7.246;2023-02-15T15:53:47;13.30;40.30
4097;DHT22;2062;50.694;7.246;2023-02-15T15:56:20;13.20;40.30
4097;DHT22;2062;50.694;7.246;2023-02-15T15:58:51;13.10;40.40
4097;DHT22;2062;50.694;7.246;2023-02-15T16:01:26;13.00;40.50
4097;DHT22;2062;50.694;7.246;2023-02-15T16:03:54;12.90;40.70
4097;DHT22;2062;50.694;7.246;2023-02-15T16:06:33;12.80;40.80
4097;DHT22;2062;50.694;7.246;2023-02-15T16:09:11;12.70;40.90
4097;DHT22;2062;50.694;7.246;2023-02-15T16:11:39;12.60;41.00
4097;DHT22;2062;50.694;7.246;2023-02-15T16:14:12;12.50;41.30
4097;DHT22;2062;50.694;7.246;2023-02-15T16:16:40;12.40;41.20
4097;DHT22;2062;50.694;7.246;2023-02-15T16:19:20;12.30;41.30
4097;DHT22;2062;50.694;7.246;2023-02-15T16:21:49;12.10;41.60
4097;DHT22;2062;50.694;7.246;2023-02-15T16:24:22;12.10;41.60
4097;DHT22;2062;50.694;7.246;2023-02-15T16:29:42;11.90;41.70
4097;DHT22;2062;50.694;7.246;2023-02-15T16:32:17;11.70;41.70
4097;DHT22;2062;50.694;7.246;2023-02-15T16:34:55;11.60;41.80
4097;DHT22;2062;50.694;7.246;2023-02-15T16:37:23;11.50;42.00
4097;DHT22;2062;50.694;7.246;2023-02-15T16:39:53;11.40;42.10
4097;DHT22;2062;50.694;7.246;2023-02-15T16:42:20;11.30;42.10
4097;DHT22;2062;50.694;7.246;2023-02-15T16:44:51;11.30;42.30
4097;DHT22;2062;50.694;7.246;2023-02-15T16:47:23;11.10;42.20
4097;DHT22;2062;50.694;7.246;2023-02-15T16:49:52;11.00;42.40
4097;DHT22;2062;50.694;7.246;2023-02-15T16:52:22;10.90;42.50
4097;DHT22;2062;50.694;7.246;2023-02-15T16:54:55;10.80;42.40
4097;DHT22;2062;50.694;7.246;2023-02-15T16:57:24;10.70;42.30
4097;DHT22;2062;50.694;7.246;2023-02-15T16:59:56;10.60;42.20
4097;DHT22;2062;50.694;7.246;2023-02-15T17:02:25;10.60;42.30
4097;DHT22;2062;50.694;7.246;2023-02-15T17:05:13;10.50;42.30
4097;DHT22;2062;50.694;7.246;2023-02-15T17:07:50;10.40;42.20
4097;DHT22;2062;50.694;7.246;2023-02-15T17:10:29;10.40;42.20
4097;DHT22;2062;50.694;7.246;2023-02-15T17:13:00;10.40;42.20